Time;durP1;ratioP1;P1;durP2;ratioP2;P2;SDS_P1;SDS_P2;PMS_P1;PMS_P2;Temp;Humidity;BMP_temperature;BMP_pressure;BME280_temperature;BME280_humidity;BME280_pressure;Samples;Min_cycle;Max_cycle;Signal;HPM_P1;HPM_P2
2022/05/04 00:00:44;;;;;;;3.85;0.80;;;;;;;8.96;53.67;101285.72;2088165;28;20287;-68
2022/05/04 00:01:45;;;;;;;4.63;0.60;;;;;;;8.99;53.50;101286.03;2087488;28;20305;-68
2022/05/04 00:02:47;;;;;;;6.60;0.70;;;;;;;9.01;53.69;101288.44;2088850;28;20294;-68
2022/05/04 00:03:52;;;;;;;3.60;0.63;;;;;;;9.00;53.16;101284.16;2105004;28;20286;-68
2022/05/04 00:04:56;;;;;;;2.08;0.55;;;;;;;8.97;52.76;101288.13;2088119;28;20636;-68
2022/05/04 00:06:01;;;;;;;2.38;0.80;;;;;;;8.91;53.04;101289.13;2095822;28;20286;-69
2022/05/04 00:07:07;;;;;;;3.17;0.80;;;;;;;8.91;53.25;101291.81;2096841;28;20302;-68
2022/05/04 00:08:15;;;;;;;2.75;1.13;;;;;;;8.94;53.34;101287.81;2092139;28;20299;-68
2022/05/04 00:09:17;;;;;;;2.25;0.90;;;;;;;8.98;53.32;101287.06;2092897;28;20392;-68
2022/05/04 00:10:24;;;;;;;3.38;0.80;;;;;;;9.02;53.83;101285.53;2096398;28;20302;-68
2022/05/04 00:11:27;;;;;;;2.67;0.68;;;;;;;9.03;53.76;101284.47;2104033;28;20274;-67
2022/05/04 00:12:37;;;;;;;3.42;0.65;;;;;;;9.01;54.00;101285.75;2096276;28;20291;-67
2022/05/04 00:13:41;;;;;;;1.65;0.77;;;;;;;8.98;53.82;101288.94;2097313;28;20294;-67
2022/05/04 00:14:49;;;;;;;1.90;1.00;;;;;;;8.97;54.21;101288.13;2096174;28;20283;-67
2022/05/04 00:16:00;;;;;;;1.77;0.85;;;;;;;8.94;54.06;101293.19;2084101;28;20845;-68
2022/05/04 00:17:04;;;;;;;3.58;0.85;;;;;;;8.89;54.21;101290.44;2090023;28;20283;-68
2022/05/04 00:18:07;;;;;;;7.35;0.80;;;;;;;8.80;54.58;101285.53;2088536;28;20287;-67
2022/05/04 00:19:09;;;;;;;4.32;0.88;;;;;;;8.79;54.83;101291.13;2080884;28;20292;-67
2022/05/04 00:20:14;;;;;;;1.60;0.65;;;;;;;8.75;55.28;101284.63;2080311;28;20284;-67
2022/05/04 00:21:21;;;;;;;1.55;0.82;;;;;;;8.73;55.22;101289.44;2089251;28;20299;-67
2022/05/04 00:22:28;;;;;;;3.85;0.88;;;;;;;8.69;55.12;101283.75;2091991;28;20791;-67
2022/05/04 00:23:33;;;;;;;2.80;0.80;;;;;;;8.68;55.43;101278.66;2103907;28;20638;-68
2022/05/04 00:24:35;;;;;;;3.22;0.85;;;;;;;8.65;55.58;101290.69;2105018;28;20040;-67
2022/05/04 00:25:38;;;;;;;1.23;0.70;;;;;;;8.63;55.58;101286.63;2095240;28;20294;-67
2022/05/04 00:26:47;;;;;;;2.05;1.00;;;;;;;8.62;55.51;101295.72;2097022;28;20318;-67
2022/05/04 00:27:52;;;;;;;2.75;0.80;;;;;;;8.62;55.81;101291.19;2103749;28;20282;-67
2022/05/04 00:28:56;;;;;;;3.13;0.75;;;;;;;8.61;55.21;101299.44;2096554;28;20781;-68
2022/05/04 00:29:58;;;;;;;6.43;1.13;;;;;;;8.61;55.62;101297.59;2093872;28;20341;-68
2022/05/04 00:31:01;;;;;;;2.78;0.80;;;;;;;8.59;55.53;101289.78;2095982;28;20376;-68
2022/05/04 00:32:05;;;;;;;6.38;1.40;;;;;;;8.56;55.38;101292.97;2087707;28;20284;-67
2022/05/04 00:33:13;;;;;;;3.60;1.00;;;;;;;8.56;55.46;101297.53;2080546;28;20303;-67
2022/05/04 00:34:18;;;;;;;4.90;1.23;;;;;;;8.55;55.82;101302.06;2090077;28;20291;-68
2022/05/04 00:35:23;;;;;;;2.92;1.33;;;;;;;8.55;55.80;101302.06;2096475;28;20055;-67
2022/05/04 00:36:25;;;;;;;5.45;1.20;;;;;;;8.53;55.80;101298.81;2104577;28;20286;-68
2022/05/04 00:37:28;;;;;;;3.45;0.90;;;;;;;8.51;55.93;101295.59;2103621;28;20274;-68
2022/05/04 00:38:38;;;;;;;;;;;;;;;8.53;56.06;101292.66;2089024;28;20283;-69
2022/05/04 00:39:42;;;;;;;3.08;1.23;;;;;;;8.52;55.88;101291.84;2079282;28;19921;-68
2022/05/04 00:40:46;;;;;;;3.58;1.20;;;;;;;8.53;56.11;101289.97;2064642;28;20293;-68
2022/05/04 00:41:50;;;;;;;5.45;1.10;;;;;;;8.51;55.68;101290.22;2080801;28;20801;-68
2022/05/04 00:42:56;;;;;;;3.58;1.20;;;;;;;8.49;55.85;101296.88;2087971;28;20338;-68
2022/05/04 00:44:03;;;;;;;6.57;1.20;;;;;;;8.47;56.38;101301.69;2095494;28;20283;-68
2022/05/04 00:45:07;;;;;;;4.95;1.63;;;;;;;8.45;56.21;101307.28;2094359;28;20299;-69
2022/05/04 00:46:12;;;;;;;4.47;1.60;;;;;;;8.40;56.39;101299.16;2095691;28;20279;-69
2022/05/04 00:47:16;;;;;;;4.88;1.77;;;;;;;8.38;56.62;101300.44;2104678;28;20324;-68
2022/05/04 00:48:28;;;;;;;5.95;1.58;;;;;;;8.40;56.76;101303.72;2104480;28;20278;-68
2022/05/04 00:49:34;;;;;;;5.65;1.50;;;;;;;8.38;57.24;101301.28;2088669;28;20284;-68
2022/05/04 00:50:39;;;;;;;8.63;1.80;;;;;;;8.41;57.21;101298.09;2073068;28;20293;-69
2022/05/04 00:51:41;;;;;;;5.00;1.75;;;;;;;8.44;57.17;101302.97;2089219;28;20983;-69
2022/05/04 00:52:51;;;;;;;6.50;1.45;;;;;;;8.47;56.65;101304.34;2104087;28;20768;-69
2022/05/04 00:53:54;;;;;;;;;;;;;;;8.48;56.69;101312.16;2095553;28;20291;-69
2022/05/04 00:54:58;;;;;;;5.25;2.10;;;;;;;8.46;56.94;101308.91;2092834;28;19923;-68
2022/05/04 00:56:09;;;;;;;6.13;2.05;;;;;;;8.46;56.85;101308.91;2096904;28;20275;-69
2022/05/04 00:57:14;;;;;;;4.63;1.80;;;;;;;8.48;56.84;101309.47;2103576;28;20355;-68
2022/05/04 00:59:42;;;;;;;7.53;1.88;;;;;;;8.46;57.18;101313.47;2103879;28;20278;-68
2022/05/04 01:00:48;;;;;;;5.78;1.80;;;;;;;8.44;57.12;101305.66;2103461;28;20293;-67
2022/05/04 01:01:53;;;;;;;5.38;1.80;;;;;;;8.45;57.59;101307.28;2104199;28;20290;-67
2022/05/04 01:02:55;;;;;;;9.18;2.58;;;;;;;8.47;57.11;101309.72;2095275;28;20640;-68
2022/05/04 01:03:59;;;;;;;7.90;2.80;;;;;;;8.50;57.13;101309.22;2095374;28;20814;-68
2022/05/04 01:05:03;;;;;;;9.20;2.20;;;;;;;8.50;56.92;101320.75;2099787;28;20285;-67
2022/05/04 01:06:06;;;;;;;6.70;2.22;;;;;;;8.50;57.10;101310.03;2095567;28;20293;-66
2022/05/04 01:07:08;;;;;;;6.15;2.28;;;;;;;8.50;57.26;101315.38;2096353;28;20302;-68
2022/05/04 01:08:12;;;;;;;5.68;2.17;;;;;;;8.51;57.50;101310.84;2095696;28;20290;-67
2022/05/04 01:09:17;;;;;;;6.80;2.38;;;;;;;8.53;57.16;101314.09;2087870;28;20271;-68
2022/05/04 01:10:19;;;;;;;5.40;2.28;;;;;;;8.55;57.40;101312.00;2088697;28;20298;-67
2022/05/04 01:11:26;;;;;;;8.57;2.58;;;;;;;8.51;57.24;101317.03;2091854;28;20290;-68
2022/05/04 01:12:35;;;;;;;5.45;2.20;;;;;;;8.49;57.34;101319.13;2088620;28;20295;-68
2022/05/04 01:13:38;;;;;;;6.38;2.25;;;;;;;8.49;57.14;101313.78;2088430;28;20295;-68
2022/05/04 01:14:42;;;;;;;7.22;2.10;;;;;;;8.49;57.54;101324.50;2096112;28;20293;-68
2022/05/04 01:15:45;;;;;;;7.30;2.35;;;;;;;8.51;57.30;101318.88;2098585;28;20283;-68
2022/05/04 01:16:48;;;;;;;6.45;1.95;;;;;;;8.52;57.20;101323.19;2088600;28;20295;-68
2022/05/04 01:17:51;;;;;;;9.43;2.30;;;;;;;8.51;56.94;101321.56;2089794;28;20287;-68
2022/05/04 01:18:56;;;;;;;3.65;1.88;;;;;;;8.49;56.94;101324.50;2088932;28;20318;-69
2022/05/04 01:19:59;;;;;;;7.45;2.25;;;;;;;8.49;57.27;101321.81;2089428;28;20279;-69
2022/05/04 01:21:03;;;;;;;5.13;1.98;;;;;;;8.50;57.01;101319.94;2097022;28;20298;-69
2022/05/04 01:22:05;;;;;;;5.47;1.88;;;;;;;8.54;56.37;101313.03;2097047;28;20309;-69
2022/05/04 01:23:11;;;;;;;5.68;1.42;;;;;;;8.55;56.04;101312.78;2088782;28;20361;-69
2022/05/04 01:24:13;;;;;;;5.88;1.60;;;;;;;8.57;55.34;101323.25;2082333;28;20786;-68
2022/05/04 01:25:15;;;;;;;4.05;1.55;;;;;;;8.58;55.67;101323.03;2096887;28;20661;-68
2022/05/04 01:26:18;;;;;;;6.82;1.60;;;;;;;8.61;55.36;101328.94;2088851;28;20291;-68
2022/05/04 01:27:20;;;;;;;3.42;1.23;;;;;;;8.66;55.00;101323.66;2097038;28;20670;-68
2022/05/04 01:28:24;;;;;;;6.40;1.35;;;;;;;8.67;54.93;101327.94;2097075;28;20282;-68
2022/05/04 01:29:30;;;;;;;4.50;1.20;;;;;;;8.68;54.27;101329.59;2096631;28;20290;-69
2022/05/04 01:30:35;;;;;;;3.97;1.38;;;;;;;8.69;54.90;101339.25;2089669;28;20318;-68
2022/05/04 01:31:37;;;;;;;3.85;1.10;;;;;;;8.72;54.95;101331.53;2096771;28;20279;-68
2022/05/04 01:32:40;;;;;;;3.55;1.10;;;;;;;8.66;54.81;101334.38;2096613;28;20302;-67
2022/05/04 01:33:44;;;;;;;3.95;1.30;;;;;;;8.61;54.57;101327.09;2089670;28;20804;-67
2022/05/04 01:34:49;;;;;;;4.00;1.33;;;;;;;8.59;55.41;101327.31;2097404;28;20817;-68
2022/05/04 01:35:56;;;;;;;4.95;1.15;;;;;;;8.58;55.21;101331.06;2096979;28;20291;-68
2022/05/04 01:37:04;;;;;;;4.40;1.20;;;;;;;8.55;55.28;101334.25;2104717;28;20290;-68
2022/05/04 01:38:06;;;;;;;3.22;1.33;;;;;;;8.56;55.75;101327.81;2104536;28;20765;-68
2022/05/04 01:39:09;;;;;;;4.55;1.20;;;;;;;8.57;55.64;101345.53;2097489;28;20270;-69
2022/05/04 01:40:17;;;;;;;7.05;1.30;;;;;;;8.57;56.14;101332.13;2097078;28;20713;-68
2022/05/04 01:42:39;;;;;;;2.95;1.35;;;;;;;8.58;55.95;101332.94;2094103;28;20858;-68
2022/05/04 01:43:43;;;;;;;6.50;1.42;;;;;;;8.58;56.00;101339.09;2096429;28;20283;-68
2022/05/04 01:44:48;;;;;;;6.25;1.40;;;;;;;8.47;55.51;101334.63;2080955;28;20302;-68
2022/05/04 01:45:51;;;;;;;2.85;1.10;;;;;;;8.40;55.37;101338.56;2081397;28;20755;-68
2022/05/04 01:46:57;;;;;;;4.03;1.35;;;;;;;8.40;55.71;101331.31;2104475;28;20290;-68
2022/05/04 01:47:59;;;;;;;4.75;1.40;;;;;;;8.43;55.04;101346.91;2095949;28;20357;-69
2022/05/04 01:49:05;;;;;;;3.47;1.25;;;;;;;8.36;54.97;101335.53;2088070;28;20275;-68
2022/05/04 01:50:10;;;;;;;3.33;1.35;;;;;;;8.27;55.21;101342.34;2081056;28;20291;-67
2022/05/04 01:51:15;;;;;;;3.65;1.30;;;;;;;8.23;55.63;101343.88;2073816;28;20295;-68
2022/05/04 01:52:21;;;;;;;4.63;1.55;;;;;;;8.21;55.76;101333.41;2089054;28;20279;-69
2022/05/04 01:53:26;;;;;;;6.63;2.47;;;;;;;8.21;56.19;101343.31;2089338;28;20728;-70
2022/05/04 01:54:31;;;;;;;3.22;1.67;;;;;;;8.17;56.58;101336.84;2064500;28;20281;-69
2022/05/04 01:55:36;;;;;;;5.05;1.45;;;;;;;8.17;56.14;101340.31;2069607;28;20307;-68
2022/05/04 01:56:41;;;;;;;5.88;1.35;;;;;;;8.07;55.57;101343.66;2096309;28;20801;-68
2022/05/04 01:57:44;;;;;;;5.07;1.42;;;;;;;8.08;56.07;101337.22;2096257;28;20803;-67
2022/05/04 01:58:49;;;;;;;6.03;1.50;;;;;;;8.13;56.14;101347.19;2087787;28;20287;-68
2022/05/04 01:59:52;;;;;;;5.32;1.70;;;;;;;8.18;55.66;101344.63;2103938;28;20697;-68
2022/05/04 02:01:01;;;;;;;4.57;1.42;;;;;;;8.23;55.53;101343.88;2096367;28;20286;-68
2022/05/04 02:02:07;;;;;;;5.88;1.60;;;;;;;8.24;55.32;101342.84;2090623;28;20334;-68
2022/05/04 02:03:10;;;;;;;3.58;1.50;;;;;;;7.99;55.64;101341.34;2097514;28;20290;-68
2022/05/04 02:04:17;;;;;;;5.00;1.60;;;;;;;7.98;55.89;101350.44;2096963;28;20286;-68
2022/05/04 02:05:26;;;;;;;4.97;2.10;;;;;;;8.04;56.00;101348.66;2105006;28;20297;-68
2022/05/04 02:06:29;;;;;;;4.95;1.40;;;;;;;8.08;55.51;101345.25;2104306;28;20413;-68
2022/05/04 02:07:37;;;;;;;6.95;1.92;;;;;;;7.96;55.74;101339.16;2102209;28;20314;-68
2022/05/04 02:08:41;;;;;;;3.28;1.20;;;;;;;8.00;55.64;101340.28;2101338;28;20286;-66
2022/05/04 02:09:46;;;;;;;5.88;1.50;;;;;;;8.00;55.54;101342.97;2104019;28;20286;-68
2022/05/04 02:10:53;;;;;;;7.93;1.90;;;;;;;8.01;55.35;101339.25;2086983;28;20280;-68
2022/05/04 02:11:56;;;;;;;5.68;1.40;;;;;;;8.04;55.22;101343.28;2089828;28;20290;-68
2022/05/04 02:12:59;;;;;;;3.88;1.75;;;;;;;8.05;54.79;101342.25;2096543;28;20361;-67
2022/05/04 02:14:04;;;;;;;9.55;1.42;;;;;;;8.11;55.05;101339.41;2096950;28;20279;-67
2022/05/04 02:15:10;;;;;;;4.97;1.27;;;;;;;8.10;55.12;101337.81;2104247;28;20277;-67
2022/05/04 02:16:15;;;;;;;4.13;1.40;;;;;;;8.03;55.11;101339.81;2101924;28;20349;-68
2022/05/04 02:17:18;;;;;;;5.90;1.60;;;;;;;8.08;55.14;101339.09;2104616;28;20658;-68
2022/05/04 02:18:20;;;;;;;6.80;1.20;;;;;;;8.11;54.91;101342.09;2104491;28;20812;-68
2022/05/04 02:19:22;;;;;;;2.55;0.75;;;;;;;8.15;54.87;101344.28;2088414;28;20295;-67
2022/05/04 02:20:24;;;;;;;4.65;1.30;;;;;;;8.08;54.88;101345.25;2088118;28;20635;-67
2022/05/04 02:21:27;;;;;;;2.90;0.95;;;;;;;8.07;55.05;101349.00;2096989;28;20279;-67
2022/05/04 02:22:34;;;;;;;2.33;0.80;;;;;;;8.11;55.30;101350.13;2093844;28;20288;-67
2022/05/04 02:23:36;;;;;;;3.22;0.80;;;;;;;8.17;54.95;101352.91;2097659;28;20278;-67
2022/05/04 02:24:39;;;;;;;3.72;0.70;;;;;;;8.16;54.58;101345.91;2104891;28;20274;-67
2022/05/04 02:25:41;;;;;;;4.15;1.20;;;;;;;8.19;54.47;101351.59;2104987;28;20289;-67
2022/05/04 02:26:46;;;;;;;0.70;0.60;;;;;;;8.24;54.65;101354.34;2104407;28;20286;-67
2022/05/04 02:27:54;;;;;;;2.88;0.70;;;;;;;8.27;54.45;101353.06;2102369;28;20303;-68
2022/05/04 02:28:59;;;;;;;1.15;0.70;;;;;;;8.33;54.31;101355.56;2104084;28;20297;-67
2022/05/04 02:30:07;;;;;;;3.50;0.75;;;;;;;8.31;54.04;101357.69;2096595;28;20282;-67
2022/05/04 02:31:13;;;;;;;2.70;0.73;;;;;;;8.29;54.11;101349.09;2094337;28;20286;-68
2022/05/04 02:32:15;;;;;;;4.80;0.88;;;;;;;8.31;53.74;101343.47;2097443;28;20305;-67
2022/05/04 02:33:17;;;;;;;2.15;0.70;;;;;;;8.24;53.71;101349.00;2105308;28;20289;-68
2022/05/04 02:34:19;;;;;;;3.13;0.70;;;;;;;8.18;53.66;101349.16;2104758;28;20274;-67
2022/05/04 02:38:04;;;;;;;2.42;0.90;;;;;;;7.96;54.34;101352.53;2104553;28;20274;-67
2022/05/04 02:39:09;;;;;;;3.28;0.98;;;;;;;8.06;54.14;101346.53;2104334;28;20286;-67
2022/05/04 02:40:12;;;;;;;3.78;0.90;;;;;;;8.15;53.85;101350.44;2096257;28;20317;-67
2022/05/04 02:41:16;;;;;;;3.50;1.00;;;;;;;8.08;54.05;101345.25;2088496;28;20287;-72
2022/05/04 02:42:21;;;;;;;2.10;0.80;;;;;;;8.08;53.55;101352.47;2089475;28;20288;-73
2022/05/04 02:43:25;;;;;;;2.67;0.93;;;;;;;8.01;54.10;101347.28;2080897;28;20300;-73
2022/05/04 02:44:34;;;;;;;6.22;0.77;;;;;;;8.05;54.02;101351.09;2074408;28;20280;-73
2022/05/04 02:45:40;;;;;;;3.38;1.10;;;;;;;8.03;54.13;101358.56;2090430;28;20287;-74
2022/05/04 02:46:42;;;;;;;3.63;1.23;;;;;;;8.03;54.13;101355.88;2100082;28;20700;-74
2022/05/04 02:47:48;;;;;;;2.42;0.93;;;;;;;8.07;54.27;101348.16;2095713;28;20293;-73
2022/05/04 02:48:51;;;;;;;7.45;1.42;;;;;;;8.08;53.66;101345.25;2095838;28;20286;-72
2022/05/04 02:49:56;;;;;;;4.50;0.90;;;;;;;8.18;54.22;101351.84;2096431;28;20290;-72
2022/05/04 02:50:58;;;;;;;3.60;1.00;;;;;;;8.24;54.10;101354.34;2091895;28;20657;-72
2022/05/04 02:52:04;;;;;;;1.92;1.00;;;;;;;8.26;53.52;101354.94;2095965;28;20287;-73
2022/05/04 02:53:12;;;;;;;3.72;1.38;;;;;;;8.29;53.87;101356.28;2104882;28;20269;-73
2022/05/04 02:54:17;;;;;;;6.88;1.23;;;;;;;8.29;53.32;101350.94;2096544;28;20773;-74
2022/05/04 02:55:20;;;;;;;2.08;1.08;;;;;;;8.25;53.68;101347.13;2088090;28;20655;-74
2022/05/04 02:56:25;;;;;;;2.10;0.90;;;;;;;8.26;53.70;101348.75;2088022;28;20283;-73
2022/05/04 02:57:29;;;;;;;6.95;1.23;;;;;;;8.26;53.88;101354.09;2086710;28;20290;-73
2022/05/04 02:58:31;;;;;;;2.83;1.40;;;;;;;8.30;53.34;101357.94;2096892;28;20298;-72
2022/05/04 02:59:35;;;;;;;3.83;1.17;;;;;;;8.33;53.82;101346.72;2088394;28;20290;-73
2022/05/04 03:00:38;;;;;;;5.82;1.13;;;;;;;8.35;53.35;101353.47;2089228;28;20675;-72
2022/05/04 03:03:16;;;;;;;4.93;1.13;;;;;;;8.31;53.65;101356.88;2096375;28;20282;-74
2022/05/04 03:04:24;;;;;;;4.45;1.17;;;;;;;8.29;53.22;101353.63;2096317;28;20032;-73
2022/05/04 03:05:26;;;;;;;6.00;1.23;;;;;;;8.30;53.68;101363.28;2090483;28;20443;-73
2022/05/04 03:06:29;;;;;;;4.25;1.20;;;;;;;8.26;53.72;101354.09;2087517;28;20276;-71
2022/05/04 03:07:33;;;;;;;4.15;1.50;;;;;;;8.27;53.55;101361.09;2088622;28;20267;-70
2022/05/04 03:08:38;;;;;;;10.35;1.60;;;;;;;8.13;53.71;101369.47;2096840;28;20310;-70
2022/05/04 03:09:42;;;;;;;6.63;1.27;;;;;;;8.14;53.97;101356.88;2096450;28;20298;-71
2022/05/04 03:12:09;;;;;;;5.13;1.13;;;;;;;8.11;54.06;101366.19;2104530;28;20286;-72
2022/05/04 03:13:11;;;;;;;3.90;1.10;;;;;;;8.20;53.85;101361.25;2104763;28;20411;-72
2022/05/04 03:14:14;;;;;;;5.50;1.35;;;;;;;8.28;54.05;101368.88;2096393;28;20282;-71
2022/05/04 03:15:21;;;;;;;2.03;1.00;;;;;;;8.12;53.82;101362.47;2096780;28;20301;-70
2022/05/04 03:16:23;;;;;;;7.07;1.20;;;;;;;8.06;54.10;101363.41;2088016;28;20298;-71
2022/05/04 03:17:26;;;;;;;3.90;1.20;;;;;;;8.12;54.07;101373.16;2080670;28;20299;-70
2022/05/04 03:18:32;;;;;;;6.00;1.10;;;;;;;8.09;54.23;101365.63;2096525;28;20275;-70
2022/05/04 03:19:41;;;;;;;4.97;1.35;;;;;;;8.12;54.46;101367.81;2088180;28;20287;-69
2022/05/04 03:20:48;;;;;;;6.00;1.60;;;;;;;8.02;54.32;101359.63;2091316;28;20282;-74
2022/05/04 03:21:51;;;;;;;4.32;1.30;;;;;;;8.04;54.92;101368.22;2111334;28;20844;-71
2022/05/04 03:22:58;;;;;;;6.15;1.38;;;;;;;8.13;54.84;101369.47;2079907;28;20296;-70
2022/05/04 03:24:01;;;;;;;5.05;1.40;;;;;;;8.22;54.30;101371.72;2074085;28;20285;-68
2022/05/04 03:25:12;;;;;;;5.97;1.55;;;;;;;8.28;54.64;101365.41;2096355;28;20290;-68
2022/05/04 03:26:15;;;;;;;4.35;1.40;;;;;;;8.13;54.50;101373.97;2095728;28;20294;-72
2022/05/04 03:27:20;;;;;;;8.73;1.33;;;;;;;8.02;55.04;101370.31;2080795;28;20287;-71
2022/05/04 03:28:30;;;;;;;2.72;1.23;;;;;;;8.13;55.17;101374.81;2090398;28;20310;-71
2022/05/04 03:29:34;;;;;;;4.53;1.40;;;;;;;8.24;55.04;101364.25;2096697;28;20279;-67
2022/05/04 03:30:37;;;;;;;4.25;1.30;;;;;;;8.35;54.88;101368.72;2096710;28;20278;-67
2022/05/04 03:31:40;;;;;;;4.70;1.52;;;;;;;8.46;54.65;101367.88;2103669;28;20273;-67
2022/05/04 03:32:46;;;;;;;6.68;1.52;;;;;;;8.52;54.57;101366.88;2105323;28;20286;-67
2022/05/04 03:33:49;;;;;;;5.28;1.50;;;;;;;8.38;54.92;101370.94;2104842;28;20278;-68
2022/05/04 03:34:51;;;;;;;4.80;1.20;;;;;;;8.42;55.01;101368.59;2103978;28;20289;-68
2022/05/04 03:35:55;;;;;;;3.95;1.10;;;;;;;8.44;54.71;101369.16;2095740;28;20587;-67
2022/05/04 03:36:58;;;;;;;4.75;1.40;;;;;;;8.51;54.60;101370.63;2104857;28;20300;-67
2022/05/04 03:38:04;;;;;;;6.43;1.83;;;;;;;8.60;54.52;101368.34;2105656;28;20827;-70
2022/05/04 03:39:08;;;;;;;7.95;1.42;;;;;;;8.71;54.13;101372.81;2098477;28;20282;-67
2022/05/04 03:40:13;;;;;;;5.43;1.23;;;;;;;8.74;54.68;101363.47;2098048;28;20279;-67
2022/05/04 03:41:16;;;;;;;4.28;1.40;;;;;;;8.81;54.46;101375.63;2097648;28;20275;-68
2022/05/04 03:42:17;;;;;;;6.32;1.17;;;;;;;8.78;54.54;101372.63;2081940;28;20291;-67
2022/05/04 03:43:23;;;;;;;2.83;1.05;;;;;;;8.52;55.30;101366.88;2090359;28;20347;-68
2022/05/04 03:44:27;;;;;;;12.73;1.38;;;;;;;8.63;55.22;101373.22;2082090;28;20295;-67
2022/05/04 03:45:29;;;;;;;4.45;1.30;;;;;;;8.76;54.48;101372.88;2073867;28;20753;-68
2022/05/04 03:46:49;;;;;;;2.17;1.02;;;;;;;8.81;55.06;101380.19;2073530;28;20296;-68
2022/05/04 03:47:55;;;;;;;4.22;1.10;;;;;;;8.97;55.28;101381.22;2094493;28;20293;-67
2022/05/04 03:49:01;;;;;;;5.47;1.10;;;;;;;9.14;54.28;101373.94;2106689;28;20059;-67
2022/05/04 03:50:08;;;;;;;4.40;1.10;;;;;;;9.27;54.67;101372.75;2097336;28;20359;-68
2022/05/04 03:51:19;;;;;;;3.30;1.33;;;;;;;9.37;53.90;101378.25;2098827;28;20298;-68
2022/05/04 03:52:22;;;;;;;3.95;1.40;;;;;;;9.36;53.86;101376.59;2104399;28;20278;-68
2022/05/04 03:53:27;;;;;;;5.93;1.40;;;;;;;9.48;53.81;101379.97;2105331;28;20043;-69
2022/05/04 03:54:36;;;;;;;3.20;1.13;;;;;;;9.58;54.04;101378.47;2105595;28;20416;-68
2022/05/04 03:55:39;;;;;;;5.50;1.60;;;;;;;9.69;53.81;101372.16;2105502;28;20785;-68
2022/05/04 03:56:45;;;;;;;7.70;1.33;;;;;;;9.81;53.75;101383.56;2094604;28;20746;-68
2022/05/04 03:57:50;;;;;;;5.15;1.50;;;;;;;9.93;53.33;101380.72;2097310;28;20286;-68
2022/05/04 03:58:53;;;;;;;7.97;1.63;;;;;;;9.98;53.14;101378.88;2090393;28;20726;-68
2022/05/04 03:59:58;;;;;;;5.88;1.40;;;;;;;10.02;52.83;101379.19;2097521;28;20309;-67
2022/05/04 04:01:04;;;;;;;7.95;1.95;;;;;;;10.12;52.76;101389.22;2097118;28;20654;-67
2022/05/04 04:02:06;;;;;;;3.10;1.45;;;;;;;10.13;52.70;101382.78;2103951;28;20641;-68
2022/05/04 04:03:09;;;;;;;3.97;1.45;;;;;;;10.10;51.88;101386.00;2105701;28;20645;-67
2022/05/04 04:04:11;;;;;;;4.40;1.60;;;;;;;10.01;52.85;101382.13;2096979;28;20315;-68
2022/05/04 04:05:13;;;;;;;6.80;1.45;;;;;;;9.92;52.21;101379.09;2096116;28;20287;-68
2022/05/04 04:06:17;;;;;;;7.22;1.55;;;;;;;9.96;52.70;101378.34;2089899;28;20294;-67
2022/05/04 04:07:24;;;;;;;6.18;1.40;;;;;;;10.04;52.11;101387.00;2097161;28;20294;-67
2022/05/04 04:08:28;;;;;;;8.05;1.80;;;;;;;9.94;52.17;101383.16;2104159;28;20705;-67
2022/05/04 04:09:30;;;;;;;4.10;1.77;;;;;;;9.79;52.29;101387.56;2097814;28;20290;-66
2022/05/04 04:10:32;;;;;;;4.82;1.98;;;;;;;9.63;51.52;101390.06;2097476;28;20271;-67
2022/05/04 04:11:37;;;;;;;3.22;1.65;;;;;;;9.68;51.62;101386.66;2105591;28;20294;-68
2022/05/04 04:12:42;;;;;;;6.00;1.80;;;;;;;9.80;51.25;101381.13;2097411;28;20290;-68
2022/05/04 04:13:49;;;;;;;7.82;2.30;;;;;;;9.84;51.14;101388.44;2090525;28;20306;-68
2022/05/04 04:14:53;;;;;;;8.98;1.92;;;;;;;9.92;51.67;101385.28;2097784;28;20290;-68
2022/05/04 04:15:56;;;;;;;8.57;2.55;;;;;;;10.01;51.13;101392.88;2105825;28;20689;-69
2022/05/04 04:16:58;;;;;;;10.25;2.50;;;;;;;10.09;51.21;101395.13;2101731;28;20639;-69
2022/05/04 04:18:06;;;;;;;10.38;2.70;;;;;;;9.71;51.11;101394.22;2101727;28;20777;-69
2022/05/04 04:19:09;;;;;;;12.75;2.17;;;;;;;9.85;51.04;101400.78;2097072;28;20370;-70
2022/05/04 04:21:52;;;;;;;7.82;2.65;;;;;;;10.13;50.42;101402.41;2090878;28;20299;-69
2022/05/04 04:22:54;;;;;;;7.15;2.63;;;;;;;10.21;50.32;101401.13;2104759;28;20294;-69
2022/05/04 04:23:59;;;;;;;8.82;2.10;;;;;;;10.20;49.98;101403.00;2102563;28;20278;-69
2022/05/04 04:25:04;;;;;;;6.32;1.92;;;;;;;10.27;50.22;101402.03;2080388;28;20295;-72
2022/05/04 04:26:11;;;;;;;7.80;2.00;;;;;;;10.39;49.66;101402.66;2074502;28;20288;-69
2022/05/04 04:27:14;;;;;;;5.05;1.90;;;;;;;10.38;50.00;101404.53;2095947;28;20294;-69
2022/05/04 04:28:16;;;;;;;6.60;2.10;;;;;;;10.40;49.38;101405.13;2096723;28;20294;-68
2022/05/04 04:29:18;;;;;;;8.60;2.45;;;;;;;10.28;49.94;101409.84;2096286;28;20347;-68
2022/05/04 04:30:26;;;;;;;7.78;2.30;;;;;;;10.43;49.34;101412.66;2093081;28;20275;-69
2022/05/04 04:31:28;;;;;;;4.50;2.38;;;;;;;10.62;49.54;101410.41;2097161;28;20274;-68
2022/05/04 04:32:34;;;;;;;7.68;2.03;;;;;;;10.63;49.20;101411.19;2085751;28;20282;-69
2022/05/04 04:33:38;;;;;;;11.32;2.30;;;;;;;10.76;48.30;101415.31;2072743;28;20300;-68
2022/05/04 04:34:41;;;;;;;6.05;2.20;;;;;;;10.89;48.89;101415.66;2082139;28;20284;-69
2022/05/04 04:35:46;;;;;;;4.50;1.98;;;;;;;11.00;48.13;101411.19;2095266;28;20289;-68
2022/05/04 04:36:53;;;;;;;6.65;2.17;;;;;;;10.79;48.14;101414.81;2079797;28;21011;-69
2022/05/04 04:38:00;;;;;;;5.32;2.00;;;;;;;10.81;48.33;101418.88;2073148;28;20301;-67
2022/05/04 04:39:02;;;;;;;4.90;2.08;;;;;;;10.85;47.91;101411.88;2067587;28;20653;-69
2022/05/04 04:40:10;;;;;;;6.25;1.98;;;;;;;10.87;47.74;101412.41;2088857;28;20292;-69
2022/05/04 04:41:13;;;;;;;8.85;2.00;;;;;;;11.08;48.07;101407.97;2089051;28;20299;-68
2022/05/04 04:42:16;;;;;;;7.35;2.30;;;;;;;11.21;47.03;101416.66;2084722;28;20303;-69
2022/05/04 04:43:26;;;;;;;8.32;2.15;;;;;;;11.33;47.20;101415.38;2081322;28;20280;-68
2022/05/04 04:44:31;;;;;;;10.25;2.30;;;;;;;11.56;46.83;101414.13;2092447;28;20287;-69
2022/05/04 04:45:34;;;;;;;5.38;1.80;;;;;;;11.66;46.60;101413.34;2113121;28;20292;-69
2022/05/04 04:46:43;;;;;;;5.80;2.22;;;;;;;11.88;45.87;101415.06;2105482;28;20285;-69
2022/05/04 04:47:46;;;;;;;7.07;2.20;;;;;;;11.92;45.38;101416.16;2074107;28;20420;-69
2022/05/04 04:48:53;;;;;;;5.50;1.75;;;;;;;12.06;45.31;101418.06;2086086;28;20477;-68
2022/05/04 04:50:00;;;;;;;8.02;2.30;;;;;;;12.12;44.79;101418.06;2080041;28;20331;-66
2022/05/04 04:51:06;;;;;;;8.63;2.20;;;;;;;12.11;44.33;101409.19;2074739;28;20297;-66
2022/05/04 04:52:09;;;;;;;9.43;2.33;;;;;;;12.26;44.64;101413.75;2088275;28;20296;-65
2022/05/04 04:53:13;;;;;;;6.85;2.50;;;;;;;12.39;44.14;101415.09;2088456;28;20291;-68
2022/05/04 04:54:15;;;;;;;5.30;2.53;;;;;;;12.44;43.76;101415.13;2096215;28;20275;-67
2022/05/04 04:55:18;;;;;;;5.28;2.05;;;;;;;12.42;43.24;101412.72;2103769;28;20765;-67
2022/05/04 04:56:26;;;;;;;5.57;2.20;;;;;;;12.54;43.05;101409.72;2103224;28;20455;-68
2022/05/04 04:57:28;;;;;;;8.93;2.05;;;;;;;12.70;43.17;101422.13;2100070;28;20350;-67
2022/05/04 04:58:30;;;;;;;9.77;2.17;;;;;;;12.85;42.58;101423.19;2088693;28;20306;-66
2022/05/04 04:59:34;;;;;;;9.55;2.97;;;;;;;13.04;42.53;101421.53;2072139;28;20034;-66
2022/05/04 05:00:41;;;;;;;5.32;1.80;;;;;;;13.02;41.21;101417.47;2081347;28;20037;-68
2022/05/04 05:01:48;;;;;;;4.47;1.65;;;;;;;12.87;41.37;101421.03;2080996;28;20512;-67
2022/05/04 05:02:50;;;;;;;4.10;1.65;;;;;;;12.89;41.21;101425.09;2096139;28;20289;-68
2022/05/04 05:03:57;;;;;;;5.15;1.48;;;;;;;12.82;40.71;101429.13;2105487;28;20278;-67
2022/05/04 05:05:02;;;;;;;12.25;1.67;;;;;;;12.86;40.47;101424.78;2080614;28;20428;-67
2022/05/04 05:06:04;;;;;;;5.95;1.50;;;;;;;12.75;40.33;101424.81;2089678;28;20047;-67
2022/05/04 05:07:10;;;;;;;4.40;1.40;;;;;;;12.72;39.98;101430.75;2104507;28;20479;-68
2022/05/04 05:08:17;;;;;;;3.38;1.00;;;;;;;12.64;39.80;101425.91;2105414;28;20298;-69
2022/05/04 05:09:28;;;;;;;3.92;1.48;;;;;;;12.62;39.24;101425.38;2097644;28;20730;-66
2022/05/04 05:10:31;;;;;;;2.80;1.00;;;;;;;12.70;39.57;101426.72;2105190;28;20451;-67
2022/05/04 05:11:34;;;;;;;4.65;0.98;;;;;;;12.57;39.30;101422.66;2104699;28;20554;-66
2022/05/04 05:12:38;;;;;;;3.22;1.05;;;;;;;12.65;39.83;101424.84;2079147;28;20048;-66
2022/05/04 05:16:28;;;;;;;10.90;1.67;;;;;;;12.90;39.00;101434.00;2103117;28;20105;-66